Time;durP1;ratioP1;P1;durP2;ratioP2;P2;SDS_P1;SDS_P2;PMS_P1;PMS_P2;Temp;Humidity;BMP_temperature;BMP_pressure;BME280_temperature;BME280_humidity;BME280_pressure;Samples;Min_cycle;Max_cycle;Signal;HPM_P1;HPM_P2
2022/12/06 00:01:41;;;;;;;;;23.75;20.00;;;;;7.36;100.00;101853.09;5078542;28;45491;-71
2022/12/06 00:04:10;;;;;;;;;26.00;20.50;;;;;7.40;100.00;101856.72;5073828;27;45208;-72
2022/12/06 00:06:39;;;;;;;;;23.25;22.50;;;;;7.33;100.00;101851.22;5077999;28;46542;-72
2022/12/06 00:09:04;;;;;;;;;31.25;19.75;;;;;7.33;100.00;101842.44;5078026;27;45484;-72
2022/12/06 00:11:32;;;;;;;;;27.00;21.50;;;;;7.35;100.00;101840.78;5078344;27;45504;-73
2022/12/06 00:14:00;;;;;;;;;27.25;25.50;;;;;7.33;100.00;101834.56;5076818;27;45207;-71
2022/12/06 00:16:26;;;;;;;;;31.00;21.25;;;;;7.31;100.00;101841.50;5068782;28;46000;-72
2022/12/06 00:18:52;;;;;;;;;23.75;19.50;;;;;7.31;100.00;101844.13;5077725;27;45406;-72
2022/12/06 00:21:20;;;;;;;;;26.75;21.00;;;;;7.29;100.00;101832.63;5073713;27;46320;-72
2022/12/06 00:23:51;;;;;;;;;19.25;15.00;;;;;7.32;100.00;101841.56;5077369;27;45534;-72
2022/12/06 00:26:17;;;;;;;;;26.25;18.00;;;;;7.31;100.00;101836.25;5072409;27;46870;-72
2022/12/06 00:28:43;;;;;;;;;33.75;24.50;;;;;7.29;100.00;101837.88;5076123;28;45472;-72
2022/12/06 00:31:12;;;;;;;;;29.75;22.50;;;;;7.27;100.00;101829.97;5074026;27;45520;-72
2022/12/06 00:33:37;;;;;;;;;28.00;19.50;;;;;7.21;100.00;101819.22;5075804;28;45461;-71
2022/12/06 00:36:15;;;;;;;;;28.25;22.50;;;;;7.24;100.00;101823.69;5075761;27;47279;-73
2022/12/06 00:38:41;;;;;;;;;26.00;23.00;;;;;7.20;100.00;101820.06;5074703;28;45529;-72
2022/12/06 00:41:09;;;;;;;;;28.00;22.25;;;;;7.20;100.00;101822.69;5077269;27;45418;-72
2022/12/06 00:43:35;;;;;;;;;31.75;22.50;;;;;7.14;100.00;101817.19;5075010;27;45515;-72
2022/12/06 00:46:01;;;;;;;;;29.25;23.25;;;;;7.14;100.00;101811.94;5072243;27;46346;-72
2022/12/06 00:48:27;;;;;;;;;29.25;23.00;;;;;7.18;100.00;101824.31;5076122;28;45574;-72
2022/12/06 00:50:53;;;;;;;;;26.75;22.00;;;;;7.18;100.00;101818.19;5077856;28;45310;-72
2022/12/06 00:53:18;;;;;;;;;29.75;19.50;;;;;7.16;100.00;101806.72;5077551;27;45350;-72
2022/12/06 00:55:44;;;;;;;;;28.25;22.75;;;;;7.19;100.00;101820.88;5077200;27;47007;-72
2022/12/06 00:58:10;;;;;;;;;28.50;18.25;;;;;7.20;100.00;101817.41;5077514;27;45445;-72
2022/12/06 01:00:36;;;;;;;;;37.25;26.75;;;;;7.17;100.00;101805.88;5076774;27;45492;-72
2022/12/06 01:03:02;;;;;;;;;23.50;19.00;;;;;7.23;100.00;101820.16;5077691;27;45353;-72
2022/12/06 01:05:27;;;;;;;;;23.25;20.25;;;;;7.20;100.00;101806.91;5073255;27;47195;-72
2022/12/06 01:07:53;;;;;;;;;29.50;21.75;;;;;7.26;100.00;101815.03;5076610;27;45495;-72
2022/12/06 01:10:18;;;;;;;;;22.50;19.50;;;;;7.26;100.00;101809.78;5077605;27;45272;-72
2022/12/06 01:12:43;;;;;;;;;25.50;20.00;;;;;7.26;100.00;101815.03;5075821;28;45405;-72
2022/12/06 01:15:09;;;;;;;;;30.00;22.25;;;;;7.17;100.00;101803.25;5074126;27;55362;-72
2022/12/06 01:17:35;;;;;;;;;33.75;22.00;;;;;7.09;100.00;101792.47;5076361;27;45486;-72
2022/12/06 01:20:00;;;;;;;;;34.00;22.50;;;;;7.20;100.00;101808.66;5074353;27;61339;-72
2022/12/06 01:22:26;;;;;;;;;35.50;18.75;;;;;7.25;100.00;101823.75;5075310;28;45480;-72
2022/12/06 01:24:51;;;;;;;;;23.75;18.50;;;;;7.27;100.00;101806.31;5075873;28;69315;-72
2022/12/06 01:27:16;;;;;;;;;26.75;19.00;;;;;7.30;100.00;101818.69;5076151;28;63727;-72
2022/12/06 01:29:41;;;;;;;;;23.25;19.75;;;;;7.28;100.00;101809.84;5075042;27;59787;-72
2022/12/06 01:32:07;;;;;;;;;18.75;18.00;;;;;7.32;100.00;101817.91;5075408;27;55670;-73
2022/12/06 01:34:32;;;;;;;;;27.00;20.00;;;;;7.35;100.00;101818.03;5073912;28;63359;-72
2022/12/06 01:36:57;;;;;;;;;27.25;20.00;;;;;7.32;100.00;101817.91;5077949;27;45499;-72
2022/12/06 01:39:23;;;;;;;;;25.50;17.50;;;;;7.34;100.00;101816.22;5073692;28;63116;-73
2022/12/06 01:41:48;;;;;;;;;19.75;18.25;;;;;7.40;100.00;101815.56;5066286;27;45319;-72
2022/12/06 01:44:59;;;;;;;;;19.25;15.00;;;;;7.41;100.00;101820.00;5073223;28;64089;-72
2022/12/06 01:47:27;;;;;;;;;17.75;14.25;;;;;7.44;100.00;101813.97;5073211;27;45575;-72
2022/12/06 01:50:21;;;;;;;;;28.00;24.00;;;;;7.45;100.00;101815.75;5075637;28;45268;-72
2022/12/06 01:52:56;;;;;;;;;25.00;19.25;;;;;7.43;100.00;101822.69;5075582;28;45528;-72
2022/12/06 01:55:24;;;;;;;;;23.50;19.25;;;;;7.41;100.00;101811.25;5076465;28;47426;-73
2022/12/06 01:57:50;;;;;;;;;27.25;20.75;;;;;7.40;100.00;101814.69;5072745;28;45580;-72
2022/12/06 02:00:16;;;;;;;;;29.00;22.50;;;;;7.41;100.00;101817.38;5076694;27;45233;-73
2022/12/06 02:02:42;;;;;;;;;24.75;19.00;;;;;7.41;100.00;101819.13;5076512;27;45262;-72
2022/12/06 02:05:07;;;;;;;;;29.25;19.75;;;;;7.41;100.00;101820.00;5072539;28;47355;-72
2022/12/06 02:07:33;;;;;;;;;26.25;19.00;;;;;7.37;100.00;101804.06;5076352;27;45341;-72
2022/12/06 02:09:59;;;;;;;;;29.00;22.75;;;;;7.39;100.00;101816.41;5073811;28;65967;-73
2022/12/06 02:12:24;;;;;;;;;23.75;17.00;;;;;7.39;100.00;101821.66;5070992;27;64767;-73
2022/12/06 02:14:52;;;;;;;;;34.50;22.25;;;;;7.34;100.00;101824.09;5068735;28;67051;-72
2022/12/06 02:17:35;;;;;;;;;22.75;19.25;;;;;7.37;100.00;101830.34;5073695;28;45465;-72
2022/12/06 02:20:15;;;;;;;;;25.00;17.75;;;;;7.35;100.00;101827.66;5070617;28;45678;-72
2022/12/06 02:22:56;;;;;;;;;33.00;23.50;;;;;7.30;100.00;101830.09;5072606;28;45332;-72
2022/12/06 02:25:21;;;;;;;;;23.50;19.00;;;;;7.26;100.00;101822.91;5071035;28;46373;-72
2022/12/06 02:28:18;;;;;;;;;30.00;23.25;;;;;7.25;100.00;101825.50;5070309;28;45343;-72
2022/12/06 02:31:01;;;;;;;;;20.00;17.75;;;;;7.25;100.00;101825.50;5073928;28;45288;-72
2022/12/06 02:33:32;;;;;;;;;31.25;25.25;;;;;7.24;100.00;101827.19;5071885;28;45519;-72
2022/12/06 02:36:04;;;;;;;;;25.00;18.25;;;;;7.26;100.00;101827.28;5075462;27;45608;-72
2022/12/06 02:38:33;;;;;;;;;21.25;19.00;;;;;7.27;100.00;101829.06;5068915;28;45532;-72
2022/12/06 02:41:12;;;;;;;;;32.00;23.50;;;;;7.29;100.00;101827.38;5074593;28;45364;-72
2022/12/06 02:43:42;;;;;;;;;23.25;19.50;;;;;7.26;100.00;101816.78;5071316;28;45567;-72
2022/12/06 02:46:10;;;;;;;;;27.25;21.00;;;;;7.32;100.00;101811.75;5070866;28;47897;-72
2022/12/06 02:48:35;;;;;;;;;25.00;22.75;;;;;7.35;100.00;101822.41;5075259;28;45400;-72
2022/12/06 02:51:07;;;;;;;;;24.50;22.50;;;;;7.38;100.00;101812.00;5078182;27;46106;-73
2022/12/06 02:53:34;;;;;;;;;33.50;19.00;;;;;7.40;100.00;101815.56;5078019;28;46442;-72
2022/12/06 02:55:59;;;;;;;;;28.75;22.75;;;;;7.41;100.00;101814.75;5078171;28;47487;-72
2022/12/06 02:58:25;;;;;;;;;31.25;19.75;;;;;7.43;100.00;101801.69;5078460;28;71038;-72
2022/12/06 03:00:58;;;;;;;;;28.00;16.25;;;;;7.40;100.00;101805.06;5079092;27;45343;-72
2022/12/06 03:03:40;;;;;;;;;31.50;20.75;;;;;7.41;100.00;101806.88;5078669;27;46639;-72
2022/12/06 03:06:15;;;;;;;;;34.25;23.50;;;;;7.42;100.00;101813.03;5076644;28;47449;-72
2022/12/06 03:08:51;;;;;;;;;29.75;25.75;;;;;7.48;100.00;101822.03;5077024;28;45542;-72
2022/12/06 03:11:17;;;;;;;;;22.75;17.50;;;;;7.47;100.00;101816.72;5079710;27;45317;-72
2022/12/06 03:14:03;;;;;;;;;28.00;21.50;;;;;7.52;100.00;101828.31;5077416;28;52273;-73
2022/12/06 03:16:40;;;;;;;;;25.25;18.00;;;;;7.53;100.00;101822.22;5076798;27;46602;-72
2022/12/06 03:19:18;;;;;;;;;28.75;25.25;;;;;7.49;100.00;101817.69;5076540;28;45350;-72
2022/12/06 03:21:58;;;;;;;;;23.25;20.00;;;;;7.50;100.00;101815.09;5077711;28;45527;-72
2022/12/06 03:24:24;;;;;;;;;21.50;20.00;;;;;7.51;100.00;101813.38;5078835;27;45433;-72
2022/12/06 03:26:50;;;;;;;;;20.75;20.50;;;;;7.56;100.00;101819.69;5077410;28;47516;-72
2022/12/06 03:29:18;;;;;;;;;33.75;21.00;;;;;7.57;100.00;101824.16;5077384;28;46716;-73
2022/12/06 03:31:45;;;;;;;;;33.25;23.25;;;;;7.58;100.00;101826.81;5092905;27;45529;-73
2022/12/06 03:34:18;;;;;;;;;36.00;24.25;;;;;7.56;100.00;101814.44;5077956;27;45681;-72
2022/12/06 03:36:45;;;;;;;;;25.25;22.00;;;;;7.56;100.00;101806.56;5078054;27;45844;-72
2022/12/06 03:39:14;;;;;;;;;30.75;18.75;;;;;7.57;100.00;101808.38;5076247;28;45353;-73
2022/12/06 03:41:44;;;;;;;;;25.25;18.50;;;;;7.60;100.00;101822.50;5077844;28;45428;-72
2022/12/06 03:44:09;;;;;;;;;24.50;21.50;;;;;7.63;100.00;101826.13;5076818;28;45354;-72
2022/12/06 03:46:38;;;;;;;;;26.25;20.25;;;;;7.58;100.00;101811.06;5076441;28;69545;-72
2022/12/06 03:49:07;;;;;;;;;24.75;18.50;;;;;7.64;100.00;101817.38;5077249;28;45354;-72
2022/12/06 03:51:34;;;;;;;;;29.25;23.00;;;;;7.64;100.00;101818.28;5077108;28;45446;-72
2022/12/06 03:54:03;;;;;;;;;32.25;22.00;;;;;7.60;100.00;101812.00;5077467;27;45559;-73
2022/12/06 03:56:30;;;;;;;;;33.00;20.00;;;;;7.60;100.00;101808.47;5078085;27;46721;-72
2022/12/06 03:58:55;;;;;;;;;24.50;19.00;;;;;7.66;100.00;101816.59;5075879;28;45278;-72
2022/12/06 04:01:20;;;;;;;;;21.25;19.25;;;;;7.61;100.00;101802.38;5077240;27;45276;-72
2022/12/06 04:03:46;;;;;;;;;20.25;18.50;;;;;7.64;100.00;101809.50;5077909;27;52826;-72
2022/12/06 04:06:12;;;;;;;;;21.00;19.00;;;;;7.68;100.00;101814.03;5074427;27;64436;-72
2022/12/06 04:08:37;;;;;;;;;26.00;16.75;;;;;7.65;100.00;101806.03;5077619;27;53156;-72
2022/12/06 04:11:03;;;;;;;;;27.25;19.50;;;;;7.65;100.00;101812.19;5077643;27;45625;-73
2022/12/06 04:13:29;;;;;;;;;23.50;20.75;;;;;7.68;100.00;101814.94;5077050;27;45461;-73
2022/12/06 04:15:56;;;;;;;;;26.50;22.25;;;;;7.66;100.00;101815.69;5077986;27;50310;-73
2022/12/06 04:18:22;;;;;;;;;38.75;24.50;;;;;7.70;100.00;101826.41;5077987;27;45484;-72
2022/12/06 04:23:38;;;;;;;;;24.25;19.00;;;;;7.67;100.00;101805.28;5077102;28;45563;-73
2022/12/06 04:26:05;;;;;;;;;28.25;23.00;;;;;7.67;100.00;101806.97;5072320;28;46653;-73
2022/12/06 04:39:28;;;;;;;;;31.50;20.25;;;;;7.74;100.00;101819.53;5077927;28;45491;-73
2022/12/06 04:44:37;;;;;;;;;18.75;14.75;;;;;7.71;100.00;101806.25;5077058;28;45555;-73
2022/12/06 04:47:03;;;;;;;;;28.50;18.50;;;;;7.68;100.00;101803.53;5075048;28;46286;-72
2022/12/06 04:49:28;;;;;;;;;16.25;14.25;;;;;7.73;100.00;101804.59;5078150;27;45408;-72
2022/12/06 04:51:54;;;;;;;;;24.50;19.00;;;;;7.70;100.00;101799.22;5074867;28;45540;-73
2022/12/06 04:54:20;;;;;;;;;24.75;19.25;;;;;7.73;100.00;101801.97;5074204;28;45564;-72
2022/12/06 04:56:46;;;;;;;;;22.75;18.00;;;;;7.69;100.00;101793.06;5077615;27;47653;-73
2022/12/06 04:59:11;;;;;;;;;26.00;21.00;;;;;7.71;100.00;101788.75;5076936;27;48401;-73
2022/12/06 05:01:36;;;;;;;;;23.25;20.25;;;;;7.72;100.00;101803.69;5076941;27;45694;-72
2022/12/06 05:04:02;;;;;;;;;19.25;16.25;;;;;7.72;100.00;101794.91;5074982;27;65492;-72
2022/12/06 05:06:27;;;;;;;;;22.50;12.00;;;;;7.73;100.00;101789.72;5075491;27;46315;-73
2022/12/06 05:08:53;;;;;;;;;26.25;17.50;;;;;7.73;100.00;101800.25;5075610;28;56712;-73
2022/12/06 05:11:18;;;;;;;;;24.50;19.00;;;;;7.74;100.00;101801.13;5075124;27;60493;-72
2022/12/06 05:13:43;;;;;;;;;27.25;20.25;;;;;7.66;100.00;101784.16;5075612;27;55365;-73
2022/12/06 05:16:10;;;;;;;;;27.75;22.75;;;;;7.70;100.00;101793.97;5075132;27;69001;-73
2022/12/06 05:18:36;;;;;;;;;29.25;18.75;;;;;7.72;100.00;101795.78;5087379;27;46204;-73
2022/12/06 05:21:06;;;;;;;;;28.75;19.00;;;;;7.72;100.00;101792.28;5070298;28;60556;-72
2022/12/06 05:23:35;;;;;;;;;30.25;20.75;;;;;7.72;100.00;101789.63;5075716;28;46384;-73
2022/12/06 05:26:02;;;;;;;;;19.50;17.75;;;;;7.71;100.00;101786.13;5077001;27;46485;-72
2022/12/06 05:28:28;;;;;;;;;27.50;23.00;;;;;7.69;100.00;101784.28;5076796;27;45329;-72
2022/12/06 05:30:53;;;;;;;;;31.75;22.25;;;;;7.72;100.00;101789.63;5075207;27;45509;-72
2022/12/06 05:33:19;;;;;;;;;21.25;17.50;;;;;7.69;100.00;101785.19;5075705;28;52759;-73
2022/12/06 05:35:45;;;;;;;;;24.75;15.00;;;;;7.72;100.00;101790.53;5075976;27;46957;-72
2022/12/06 05:38:10;;;;;;;;;32.75;18.50;;;;;7.73;100.00;101786.19;5075091;27;64535;-73
2022/12/06 05:40:38;;;;;;;;;23.75;19.25;;;;;7.71;100.00;101785.22;5076742;28;57793;-73
2022/12/06 05:43:04;;;;;;;;;29.50;19.00;;;;;7.67;100.00;101775.44;5075386;27;45518;-72
2022/12/06 05:45:29;;;;;;;;;25.00;20.00;;;;;7.71;100.00;101774.72;5069930;28;67505;-72
2022/12/06 05:47:54;;;;;;;;;24.50;18.75;;;;;7.67;100.00;101765.84;5062269;27;45342;-73
2022/12/06 05:50:20;;;;;;;;;32.25;18.25;;;;;7.67;100.00;101763.22;5072582;27;63633;-72
2022/12/06 05:52:45;;;;;;;;;29.25;22.50;;;;;7.68;100.00;101772.88;5074786;27;45612;-73
2022/12/06 05:55:10;;;;;;;;;28.25;17.25;;;;;7.71;100.00;101780.84;5070563;27;66108;-74
2022/12/06 05:57:36;;;;;;;;;28.50;22.50;;;;;7.71;100.00;101778.22;5065002;28;62027;-73
2022/12/06 06:00:02;;;;;;;;;27.50;16.75;;;;;7.67;100.00;101778.97;5062176;27;58134;-74
2022/12/06 06:02:28;;;;;;;;;32.50;23.00;;;;;7.71;100.00;101777.34;5069016;28;45540;-73
2022/12/06 06:04:53;;;;;;;;;19.50;15.25;;;;;7.71;100.00;101786.13;5073255;28;46262;-73
2022/12/06 06:07:18;;;;;;;;;35.50;21.50;;;;;7.65;100.00;101783.25;5071529;27;69306;-73
2022/12/06 06:09:44;;;;;;;;;26.50;23.50;;;;;7.64;100.00;101776.22;5073703;28;45654;-72
2022/12/06 06:12:09;;;;;;;;;36.75;22.50;;;;;7.68;100.00;101786.03;5074637;27;45587;-72
2022/12/06 06:14:34;;;;;;;;;24.75;18.25;;;;;7.66;100.00;101777.16;5072465;28;68028;-72
2022/12/06 06:17:00;;;;;;;;;25.50;22.00;;;;;7.70;100.00;101781.72;5074153;27;45666;-73
2022/12/06 06:19:25;;;;;;;;;36.00;23.50;;;;;7.71;100.00;101786.13;5075089;27;45508;-74
2022/12/06 06:21:50;;;;;;;;;31.25;20.25;;;;;7.66;100.00;101782.41;5073599;28;56029;-74
2022/12/06 06:24:16;;;;;;;;;28.25;21.50;;;;;7.71;100.00;101783.50;5063349;28;46319;-72
2022/12/06 06:26:41;;;;;;;;;29.50;22.00;;;;;7.74;100.00;101791.50;5074457;28;60335;-71
2022/12/06 06:29:06;;;;;;;;;37.25;22.00;;;;;7.71;100.00;101785.22;5076345;28;45489;-72
2022/12/06 06:31:32;;;;;;;;;24.50;23.25;;;;;7.72;100.00;101787.00;5074097;27;45492;-71
2022/12/06 06:33:57;;;;;;;;;33.25;22.75;;;;;7.74;100.00;101782.72;5070326;28;65190;-72
2022/12/06 06:36:22;;;;;;;;;29.75;24.00;;;;;7.77;100.00;101798.59;5071881;28;58550;-74
2022/12/06 06:38:48;;;;;;;;;31.50;23.75;;;;;7.76;100.00;101796.81;5074522;28;48003;-71
2022/12/06 06:41:13;;;;;;;;;27.25;19.50;;;;;7.73;100.00;101783.56;5063902;28;47386;-71
2022/12/06 06:43:39;;;;;;;;;29.50;22.75;;;;;7.73;100.00;101794.09;5064880;27;57430;-73
2022/12/06 06:46:06;;;;;;;;;40.75;29.25;;;;;7.75;100.00;101802.91;5070783;27;45334;-71
2022/12/06 06:48:35;;;;;;;;;25.50;21.75;;;;;7.74;100.00;101804.66;5074280;28;45795;-73
2022/12/06 06:51:06;;;;;;;;;23.25;16.75;;;;;7.68;100.00;101798.28;5065755;27;46579;-72
2022/12/06 06:53:32;;;;;;;;;27.50;23.25;;;;;7.73;100.00;101810.75;5075315;27;45341;-73
2022/12/06 06:55:57;;;;;;;;;37.00;26.00;;;;;7.73;100.00;101808.13;5073996;28;45464;-71
2022/12/06 06:58:23;;;;;;;;;37.00;29.25;;;;;7.68;100.00;101796.53;5072925;27;51038;-72
2022/12/06 07:00:53;;;;;;;;;33.75;24.00;;;;;7.74;100.00;101798.50;5069983;27;45380;-72
2022/12/06 07:03:19;;;;;;;;;30.50;20.00;;;;;7.71;100.00;101804.53;5070305;28;45724;-72
2022/12/06 07:05:51;;;;;;;;;37.50;27.00;;;;;7.72;100.00;101801.03;5061498;28;45535;-72
2022/12/06 07:08:16;;;;;;;;;28.50;22.50;;;;;7.76;100.00;101813.47;5066736;28;45531;-72
2022/12/06 07:10:47;;;;;;;;;32.50;24.50;;;;;7.76;100.00;101808.22;5073240;28;56740;-70
2022/12/06 07:13:16;;;;;;;;;30.75;21.50;;;;;7.73;100.00;101807.22;5072673;27;45652;-70
2022/12/06 07:15:41;;;;;;;;;39.00;22.50;;;;;7.70;100.00;101799.22;5073862;27;46588;-71
2022/12/06 07:18:07;;;;;;;;;31.50;27.25;;;;;7.65;100.00;101788.53;5074243;27;45596;-73
2022/12/06 07:20:32;;;;;;;;;37.75;23.50;;;;;7.66;100.00;101792.03;5075354;28;45283;-72
2022/12/06 07:22:58;;;;;;;;;36.75;28.00;;;;;7.62;100.00;101788.44;5074236;27;68475;-73
2022/12/06 07:25:23;;;;;;;;;40.00;27.50;;;;;7.60;100.00;101785.72;5073422;27;45464;-74
2022/12/06 07:27:48;;;;;;;;;39.00;29.50;;;;;7.63;100.00;101803.34;5068417;27;60867;-74
2022/12/06 07:30:14;;;;;;;;;37.75;29.00;;;;;7.58;100.00;101792.66;5073276;27;45233;-74
2022/12/06 07:32:39;;;;;;;;;33.25;22.50;;;;;7.61;100.00;101797.13;5073327;28;46325;-73
2022/12/06 07:35:05;;;;;;;;;27.75;25.00;;;;;7.65;100.00;101806.03;5072984;28;67596;-74
2022/12/06 07:37:31;;;;;;;;;38.00;26.50;;;;;7.63;100.00;101798.09;5077040;27;45483;-73
2022/12/06 07:39:56;;;;;;;;;36.25;27.50;;;;;7.58;100.00;101800.53;5077692;27;45237;-74
2022/12/06 07:45:07;;;;;;;;;40.50;25.50;;;;;7.63;100.00;101802.47;5074222;27;45751;-74
2022/12/06 07:47:41;;;;;;;;;40.00;26.25;;;;;7.62;100.00;101796.31;5074623;28;46193;-74
2022/12/06 07:50:12;;;;;;;;;42.25;30.50;;;;;7.63;100.00;101802.47;5076301;27;45398;-73
2022/12/06 07:52:38;;;;;;;;;31.25;25.50;;;;;7.59;100.00;101788.28;5074363;28;47443;-74
2022/12/06 07:55:04;;;;;;;;;32.00;25.50;;;;;7.60;100.00;101790.97;5075397;27;45525;-74
2022/12/06 07:57:29;;;;;;;;;31.50;23.25;;;;;7.65;100.00;101793.78;5077401;27;45483;-73
2022/12/06 07:59:55;;;;;;;;;33.00;28.00;;;;;7.63;100.00;101789.31;5075435;27;53911;-74
2022/12/06 08:02:23;;;;;;;;;36.50;26.50;;;;;7.63;100.00;101792.84;5076516;27;47302;-73
2022/12/06 08:04:49;;;;;;;;;44.25;29.75;;;;;7.65;100.00;101801.66;5075739;27;45735;-73
2022/12/06 08:07:14;;;;;;;;;41.50;28.50;;;;;7.64;100.00;101804.25;5074885;27;65201;-73
2022/12/06 08:09:40;;;;;;;;;41.75;28.25;;;;;7.56;100.00;101803.94;5075867;27;46565;-73
2022/12/06 08:12:07;;;;;;;;;29.00;13.75;;;;;7.59;100.00;101818.09;5075921;27;74884;-74
2022/12/06 08:14:32;;;;;;;;;39.75;26.00;;;;;7.60;100.00;101809.38;5076583;27;45362;-74
2022/12/06 08:16:57;;;;;;;;;34.75;25.25;;;;;7.61;100.00;101812.88;5077222;27;45419;-73
2022/12/06 08:19:23;;;;;;;;;30.00;22.25;;;;;7.67;100.00;101821.03;5073476;28;48167;-73
2022/12/06 08:21:48;;;;;;;;;35.00;24.50;;;;;7.67;100.00;101831.56;5075947;27;47353;-73
2022/12/06 08:24:14;;;;;;;;;36.00;23.00;;;;;7.72;100.00;101829.97;5077350;27;45488;-72
2022/12/06 08:26:39;;;;;;;;;32.25;20.00;;;;;7.70;100.00;101826.41;5074490;28;62425;-72
2022/12/06 08:29:04;;;;;;;;;24.25;19.25;;;;;7.77;100.00;101838.03;5076768;27;53224;-73
2022/12/06 08:31:30;;;;;;;;;38.00;25.25;;;;;7.78;100.00;101842.47;5074544;28;47294;-73
2022/12/06 08:33:56;;;;;;;;;30.25;23.75;;;;;7.76;100.00;101833.63;5074305;28;45496;-74
2022/12/06 08:36:23;;;;;;;;;34.50;25.50;;;;;7.76;100.00;101839.78;5075159;27;45485;-74
2022/12/06 08:38:49;;;;;;;;;32.75;18.00;;;;;7.76;100.00;101841.50;5075938;28;45480;-76
2022/12/06 08:44:00;;;;;;;;;34.75;26.00;;;;;7.81;100.00;101863.63;5076239;28;45509;-73
2022/12/06 08:46:27;;;;;;;;;32.75;24.25;;;;;7.72;100.00;101861.50;5076469;27;45307;-73
2022/12/06 08:48:53;;;;;;;;;35.75;26.25;;;;;7.73;100.00;101862.44;5077130;27;45279;-74
2022/12/06 08:51:18;;;;;;;;;51.50;27.75;;;;;7.74;100.00;101869.47;5072456;28;47606;-74
2022/12/06 08:53:43;;;;;;;;;37.00;28.00;;;;;7.72;100.00;101869.41;5075995;28;45447;-73
2022/12/06 08:56:09;;;;;;;;;35.75;25.50;;;;;7.72;100.00;101856.25;5076026;27;45584;-73
2022/12/06 08:58:34;;;;;;;;;47.25;32.00;;;;;7.73;100.00;101858.06;5074940;27;45210;-73
2022/12/06 09:01:00;;;;;;;;;47.75;33.50;;;;;7.73;100.00;101859.81;5072310;27;46470;-73
2022/12/06 09:03:25;;;;;;;;;31.00;24.00;;;;;7.76;100.00;101868.69;5070579;27;45512;-72
2022/12/06 09:05:51;;;;;;;;;38.00;24.25;;;;;7.73;100.00;101855.44;5075582;27;54377;-73
2022/12/06 09:08:16;;;;;;;;;44.25;24.25;;;;;7.79;100.00;101867.94;5076152;27;61259;-72
2022/12/06 09:10:42;;;;;;;;;39.50;27.25;;;;;7.78;100.00;101879.28;5074962;27;47149;-73
2022/12/06 09:13:08;;;;;;;;;39.00;29.25;;;;;7.69;100.00;101863.16;5075533;27;45496;-73
2022/12/06 09:15:33;;;;;;;;;46.50;29.75;;;;;7.69;100.00;101874.56;5076227;27;45441;-73
2022/12/06 09:17:59;;;;;;;;;35.25;26.00;;;;;7.63;100.00;101868.16;5074333;27;53328;-73
2022/12/06 09:20:24;;;;;;;;;38.75;28.75;;;;;7.62;100.00;101875.16;5075102;27;46633;-73
2022/12/06 09:22:52;;;;;;;;;46.50;28.00;;;;;7.60;100.00;101867.19;5073439;28;67277;-73
2022/12/06 09:25:17;;;;;;;;;44.25;30.25;;;;;7.62;100.00;101880.41;5075547;27;45461;-72
2022/12/06 09:27:43;;;;;;;;;44.75;27.25;;;;;7.55;100.00;101866.09;5074871;28;59288;-73
2022/12/06 09:30:09;;;;;;;;;35.25;23.75;;;;;7.57;100.00;101871.44;5083292;28;64095;-72
2022/12/06 09:32:34;;;;;;;;;35.00;26.75;;;;;7.57;100.00;101876.72;5086875;27;45271;-72
2022/12/06 09:35:00;;;;;;;;;32.00;25.00;;;;;7.66;100.00;101876.16;5078701;28;51180;-72
2022/12/06 09:37:25;;;;;;;;;35.75;26.75;;;;;7.66;100.00;101881.41;5074413;28;46395;-72
2022/12/06 09:39:55;;;;;;;;;36.75;26.50;;;;;7.68;100.00;101883.28;5072519;27;46213;-72
2022/12/06 09:42:41;;;;;;;;;47.50;32.00;;;;;7.66;100.00;101876.16;5072195;28;45457;-72
2022/12/06 09:45:25;;;;;;;;;30.00;21.00;;;;;7.66;100.00;101882.31;5075273;27;45588;-72
2022/12/06 09:47:53;;;;;;;;;43.00;27.50;;;;;7.66;100.00;101887.56;5075569;28;45606;-72
2022/12/06 09:50:46;;;;;;;;;42.50;29.25;;;;;7.65;100.00;101898.91;5075283;28;47308;-72
2022/12/06 09:53:17;;;;;;;;;35.50;24.25;;;;;7.60;100.00;101882.06;5072855;28;45473;-73
2022/12/06 09:56:07;;;;;;;;;38.00;20.50;;;;;7.64;100.00;101886.63;5072998;28;45522;-72
2022/12/06 09:58:39;;;;;;;;;42.50;28.25;;;;;7.65;100.00;101892.75;5073845;28;45556;-73
2022/12/06 10:01:13;;;;;;;;;30.50;25.75;;;;;7.66;100.00;101897.19;5072111;27;45550;-72
2022/12/06 10:03:57;;;;;;;;;40.75;28.25;;;;;7.61;100.00;101889.09;5074584;28;45651;-72
2022/12/06 10:06:27;;;;;;;;;35.00;26.00;;;;;7.69;100.00;101900.84;5070836;28;45517;-72
2022/12/06 10:09:10;;;;;;;;;32.00;23.50;;;;;7.69;100.00;101895.59;5070913;28;45559;-72
2022/12/06 10:11:36;;;;;;;;;55.25;29.25;;;;;7.70;100.00;101901.72;5074143;28;47603;-72
2022/12/06 10:14:32;;;;;;;;;38.50;27.25;;;;;7.69;100.00;101894.69;5072501;28;45335;-72
2022/12/06 10:17:31;;;;;;;;;42.25;33.00;;;;;7.69;100.00;101892.94;5073483;28;45473;-72
2022/12/06 10:20:08;;;;;;;;;39.75;29.75;;;;;7.70;100.00;101892.13;5074297;28;45564;-72
2022/12/06 10:22:48;;;;;;;;;34.50;27.50;;;;;7.70;100.00;101900.00;5073638;28;47298;-71
2022/12/06 10:25:21;;;;;;;;;42.25;26.25;;;;;7.71;100.00;101886.00;5072042;28;45300;-73
2022/12/06 10:28:22;;;;;;;;;49.25;29.25;;;;;7.74;100.00;101885.25;5074735;27;45365;-73
2022/12/06 10:30:54;;;;;;;;;36.75;27.75;;;;;7.75;100.00;101887.94;5071737;28;45491;-72
2022/12/06 10:33:27;;;;;;;;;37.75;25.50;;;;;7.74;100.00;101883.53;5072317;27;47530;-72
2022/12/06 10:35:58;;;;;;;;;45.50;28.25;;;;;7.72;100.00;101893.06;5073038;28;45499;-73
2022/12/06 10:38:29;;;;;;;;;38.75;28.25;;;;;7.69;100.00;101892.94;5071552;28;45593;-71
2022/12/06 10:40:57;;;;;;;;;37.75;32.50;;;;;7.72;100.00;101892.16;5070868;28;45571;-72
2022/12/06 10:43:42;;;;;;;;;44.50;27.50;;;;;7.73;100.00;101896.63;5070006;27;46791;-73
2022/12/06 10:47:02;;;;;;;;;39.00;29.25;;;;;7.73;100.00;101891.34;5072785;28;47060;-72
2022/12/06 10:49:30;;;;;;;;;42.00;32.25;;;;;7.76;100.00;101889.72;5068499;28;45410;-72
2022/12/06 10:52:11;;;;;;;;;44.25;29.25;;;;;7.78;100.00;101885.44;5075306;28;45561;-72
2022/12/06 10:54:44;;;;;;;;;36.25;25.75;;;;;7.81;100.00;101887.28;5073112;27;46693;-71
2022/12/06 10:57:18;;;;;;;;;45.00;31.75;;;;;7.80;100.00;101877.59;5087366;27;45579;-72
2022/12/06 10:59:50;;;;;;;;;47.25;32.75;;;;;7.81;100.00;101887.28;5071433;28;45531;-72
2022/12/06 11:02:39;;;;;;;;;50.00;35.00;;;;;7.80;100.00;101881.13;5073278;27;45475;-72
2022/12/06 11:05:14;;;;;;;;;52.25;32.75;;;;;7.85;100.00;101884.81;5071443;28;47355;-71
2022/12/06 11:07:42;;;;;;;;;40.25;32.25;;;;;7.80;100.00;101880.22;5072835;28;45503;-72
2022/12/06 11:10:21;;;;;;;;;44.75;31.75;;;;;7.84;100.00;101882.16;5073319;28;45422;-71
2022/12/06 11:12:48;;;;;;;;;50.50;32.75;;;;;7.81;100.00;101879.38;5076345;28;45528;-71
2022/12/06 11:15:29;;;;;;;;;47.25;31.50;;;;;7.75;100.00;101866.00;5075861;27;47326;-72
2022/12/06 11:18:13;;;;;;;;;42.50;29.25;;;;;7.71;100.00;101862.34;5074403;28;45403;-73
2022/12/06 11:20:42;;;;;;;;;49.75;32.00;;;;;7.71;100.00;101864.09;5078430;27;45452;-73
2022/12/06 11:23:10;;;;;;;;;44.00;30.00;;;;;7.70;100.00;101878.97;5077552;27;45618;-74
2022/12/06 11:25:54;;;;;;;;;50.50;34.50;;;;;7.69;100.00;101865.78;5071674;28;45728;-74
2022/12/06 11:28:36;;;;;;;;;45.00;29.75;;;;;7.71;100.00;101871.97;4913338;22;45721;-74
2022/12/06 11:31:24;;;;;;;;;45.00;28.75;;;;;7.69;100.00;101853.53;5061279;28;45578;-72
2022/12/06 11:33:50;;;;;;;;;58.00;34.25;;;;;7.77;100.00;101857.31;5051870;28;45678;-72
2022/12/06 11:36:15;;;;;;;;;41.25;31.50;;;;;7.80;100.00;101860.09;5075996;28;61947;-73
2022/12/06 11:38:43;;;;;;;;;47.75;36.50;;;;;7.83;100.00;101860.22;5077251;28;45213;-73
2022/12/06 11:41:12;;;;;;;;;40.75;26.75;;;;;7.84;100.00;101850.59;5057798;28;52404;-71